Gran Canaria Car — CQYQ — position and weather

sailwx.info

Track history (hours):
 
Tides and Currents Weather Stations Pressure Air Temp Water Temp Dewpoint Dewpoint Depression Visibility Wind Speed Wind Dir Waves Ship Positions

Gran Canaria Car

Last reported at 2017-Dec-14 08:16 UTC. Time now 2017-Dec-15 16:06 UTC.
Position N 35°59' W 005°13'.

Length 130 m; draft 5.2 m.

Type: Cargo ship. MMSI: 255805896.

Date/timePositionNaut miles runAvg speedWind from/ knotsBaromVisibWave heightAir tempDewpointWater temp
2017-Dec-14 08:16N 35°59' W 005°13'312.7
2017-Dec-14 08:00N 35°59' W 005°17'713.1
2017-Dec-14 07:30N 35°58' W 005°25'  
2017-Dec-11 15:25N 29°05' W 013°15'511.0
2017-Dec-11 14:59N 29°03' W 013°20'910.8
2017-Dec-11 14:09N 28°58' W 013°29'3 0.4
2017-Dec-11 07:50N 28°58' W 013°32'0 0.1
2017-Dec-11 07:25N 28°58' W 013°32'0 0.8
2017-Dec-11 06:59N 28°58' W 013°32'3 2.4
2017-Dec-11 05:43N 28°56' W 013°34'2 9.9
2017-Dec-11 05:30N 28°54' W 013°36'7 9.5
2017-Dec-11 04:47N 28°51' W 013°43'3 9.4
2017-Dec-11 04:29N 28°49' W 013°45'20 9.3
2017-Dec-11 02:18N 28°47' W 014°08'23 9.5
2017-Dec-10 23:55N 28°35' W 014°31'4 9.8
2017-Dec-10 23:30N 28°33' W 014°34'5 9.8
2017-Dec-10 23:00N 28°30' W 014°39'510.0
2017-Dec-10 22:30N 28°27' W 014°44'510.5
2017-Dec-10 22:00N 28°25' W 014°49'510.4
2017-Dec-10 21:30N 28°22' W 014°54'510.1
2017-Dec-10 21:01N 28°20' W 014°59'510.0
2017-Dec-10 20:31N 28°17' W 015°04'510.3
2017-Dec-10 20:01N 28°14' W 015°09'510.5
2017-Dec-10 19:31N 28°12' W 015°14'510.3
2017-Dec-10 19:01N 28°09' W 015°19'5 9.7
2017-Dec-10 18:31N 28°07' W 015°24'1 2.2
2017-Dec-10 17:51N 28°08' W 015°25'0 0.0
2017-Dec-10 17:21N 28°08' W 015°25'0 0.0
2017-Dec-10 16:51N 28°08' W 015°25'0 0.0
2017-Dec-10 16:21N 28°08' W 015°25'0 0.0
2017-Dec-10 15:54N 28°08' W 015°25'0 0.0
2017-Dec-10 15:24N 28°08' W 015°25'0 0.0
2017-Dec-10 14:54N 28°08' W 015°25'0 0.0
2017-Dec-10 14:24N 28°08' W 015°25'0 0.0
2017-Dec-10 13:51N 28°08' W 015°25'0 0.0
2017-Dec-10 13:24N 28°08' W 015°25'0 0.0
2017-Dec-10 12:54N 28°08' W 015°25'0 0.0
2017-Dec-10 12:24N 28°08' W 015°25'0 0.0
2017-Dec-10 11:54N 28°08' W 015°25'0 0.0
2017-Dec-10 11:27N 28°08' W 015°25'0 0.0
2017-Dec-10 10:57N 28°08' W 015°25'0 0.0
2017-Dec-10 10:27N 28°08' W 015°25'0 0.0
2017-Dec-10 09:57N 28°08' W 015°25'0 0.0
2017-Dec-10 09:27N 28°08' W 015°25'0 0.0
2017-Dec-10 08:57N 28°08' W 015°25'0 0.0
2017-Dec-10 08:27N 28°08' W 015°25'0 0.0
2017-Dec-10 07:57N 28°08' W 015°25'0 0.0
2017-Dec-10 07:27N 28°08' W 015°25'0 0.0
2017-Dec-10 06:57N 28°08' W 015°25'0 0.0
2017-Dec-10 06:30N 28°08' W 015°25'0 0.0
2017-Dec-10 06:00N 28°08' W 015°25'0 0.0
2017-Dec-10 05:30N 28°08' W 015°25'0 0.0
2017-Dec-10 05:00N 28°08' W 015°25'0 0.0
2017-Dec-10 04:30N 28°08' W 015°25'0 0.0
2017-Dec-10 03:59N 28°08' W 015°25'0 0.0
2017-Dec-10 03:26N 28°08' W 015°25'0 0.0
2017-Dec-10 02:59N 28°08' W 015°25'0 0.0
2017-Dec-10 02:29N 28°08' W 015°25'0 0.0
2017-Dec-10 01:59N 28°08' W 015°25'0 0.0
2017-Dec-10 01:29N 28°08' W 015°25'0 0.0
2017-Dec-10 00:59N 28°08' W 015°25'0 0.0
2017-Dec-10 00:29N 28°08' W 015°25'0 0.0
2017-Dec-09 23:59N 28°08' W 015°25'0 0.0
2017-Dec-09 23:29N 28°08' W 015°25'0 0.0
2017-Dec-09 22:59N 28°08' W 015°25'0 0.0
2017-Dec-09 22:29N 28°08' W 015°25'0 0.0
2017-Dec-09 21:59N 28°08' W 015°25'0 0.0
2017-Dec-09 21:29N 28°08' W 015°25'0 0.0
2017-Dec-09 20:59N 28°08' W 015°25'0 0.0
2017-Dec-09 20:29N 28°08' W 015°25'0 0.0
2017-Dec-09 19:59N 28°08' W 015°25'0 0.0
2017-Dec-09 19:29N 28°08' W 015°25'0 0.0
2017-Dec-09 19:00N 28°08' W 015°25'0 0.3
2017-Dec-09 18:30N 28°08' W 015°25'2 3.1
2017-Dec-09 18:00N 28°08' W 015°23'4 7.3
2017-Dec-09 17:30N 28°11' W 015°23'510.1
2017-Dec-09 17:00N 28°13' W 015°28'511.0
2017-Dec-09 16:30N 28°14' W 015°34'611.2
2017-Dec-09 16:00N 28°16' W 015°41'510.7
2017-Dec-09 15:30N 28°17' W 015°46'510.5
2017-Dec-09 15:00N 28°18' W 015°52'510.7
2017-Dec-09 14:30N 28°19' W 015°58'510.6
2017-Dec-09 14:00N 28°22' W 016°04'510.8
2017-Dec-09 13:30N 28°25' W 016°09'2 5.0
2017-Dec-09 13:00N 28°26' W 016°11'2 4.5
2017-Dec-09 12:30N 28°28' W 016°13'2 3.2
2017-Dec-09 12:00N 28°29' W 016°15'0 0.0
2017-Dec-09 11:30N 28°29' W 016°15'0 0.0
2017-Dec-09 11:00N 28°29' W 016°15'0 0.0
2017-Dec-09 10:30N 28°29' W 016°15'0 0.0
2017-Dec-09 10:00N 28°29' W 016°15'0 0.0
2017-Dec-09 09:30N 28°29' W 016°15'0 0.0
2017-Dec-09 09:00N 28°29' W 016°15'0 0.0
2017-Dec-09 08:30N 28°29' W 016°15'0 0.0
2017-Dec-09 08:00N 28°29' W 016°15'0 0.0
2017-Dec-09 07:30N 28°29' W 016°15'0 0.0
2017-Dec-09 07:00N 28°29' W 016°15'0 0.0
2017-Dec-09 06:30N 28°29' W 016°15'0 0.0
2017-Dec-09 06:00N 28°29' W 016°15'0 0.0
2017-Dec-09 05:30N 28°29' W 016°15'0 0.0
2017-Dec-09 05:00N 28°29' W 016°15'0 0.0
2017-Dec-09 04:30N 28°29' W 016°15'0 0.0
2017-Dec-09 04:00N 28°29' W 016°15'0 0.0
2017-Dec-09 03:30N 28°29' W 016°15'0 0.0
2017-Dec-09 03:00N 28°29' W 016°15'0 0.0
2017-Dec-09 02:30N 28°29' W 016°15'0 0.8
2017-Dec-09 02:00N 28°29' W 016°14'3 5.0
2017-Dec-09 01:30N 28°29' W 016°11'2 3.6
2017-Dec-09 01:00N 28°29' W 016°10'3 6.9
2017-Dec-09 00:30N 28°31' W 016°06'510.3
2017-Dec-09 00:00N 28°35' W 016°03'  
Track history (hours):
 
Tides and Currents Weather Stations Pressure Air Temp Water Temp Dewpoint Dewpoint Depression Visibility Wind Speed Wind Dir Waves Ship Positions

Gran Canaria Car

Last reported at 2017-Dec-14 08:16 UTC. Time now 2017-Dec-15 16:06 UTC.
Position N 35°59' W 005°13'.

Length 130 m; draft 5.2 m.

Type: Cargo ship. MMSI: 255805896.

Date/timePositionNaut miles runAvg speedWind from/ knotsBaromVisibWave heightAir tempDewpointWater temp
2017-Dec-14 08:16N 35°59' W 005°13'312.7
2017-Dec-14 08:00N 35°59' W 005°17'713.1
2017-Dec-14 07:30N 35°58' W 005°25'  
2017-Dec-11 15:25N 29°05' W 013°15'511.0
2017-Dec-11 14:59N 29°03' W 013°20'910.8
2017-Dec-11 14:09N 28°58' W 013°29'3 0.4
2017-Dec-11 07:50N 28°58' W 013°32'0 0.1
2017-Dec-11 07:25N 28°58' W 013°32'0 0.8
2017-Dec-11 06:59N 28°58' W 013°32'3 2.4
2017-Dec-11 05:43N 28°56' W 013°34'2 9.9
2017-Dec-11 05:30N 28°54' W 013°36'7 9.5
2017-Dec-11 04:47N 28°51' W 013°43'3 9.4
2017-Dec-11 04:29N 28°49' W 013°45'20 9.3
2017-Dec-11 02:18N 28°47' W 014°08'23 9.5
2017-Dec-10 23:55N 28°35' W 014°31'4 9.8
2017-Dec-10 23:30N 28°33' W 014°34'5 9.8
2017-Dec-10 23:00N 28°30' W 014°39'510.0
2017-Dec-10 22:30N 28°27' W 014°44'510.5
2017-Dec-10 22:00N 28°25' W 014°49'510.4
2017-Dec-10 21:30N 28°22' W 014°54'510.1
2017-Dec-10 21:01N 28°20' W 014°59'510.0
2017-Dec-10 20:31N 28°17' W 015°04'510.3
2017-Dec-10 20:01N 28°14' W 015°09'510.5
2017-Dec-10 19:31N 28°12' W 015°14'510.3
2017-Dec-10 19:01N 28°09' W 015°19'5 9.7
2017-Dec-10 18:31N 28°07' W 015°24'1 2.2
2017-Dec-10 17:51N 28°08' W 015°25'0 0.0
2017-Dec-10 17:21N 28°08' W 015°25'0 0.0
2017-Dec-10 16:51N 28°08' W 015°25'0 0.0
2017-Dec-10 16:21N 28°08' W 015°25'0 0.0
2017-Dec-10 15:54N 28°08' W 015°25'0 0.0
2017-Dec-10 15:24N 28°08' W 015°25'0 0.0
2017-Dec-10 14:54N 28°08' W 015°25'0 0.0
2017-Dec-10 14:24N 28°08' W 015°25'0 0.0
2017-Dec-10 13:51N 28°08' W 015°25'0 0.0
2017-Dec-10 13:24N 28°08' W 015°25'0 0.0
2017-Dec-10 12:54N 28°08' W 015°25'0 0.0
2017-Dec-10 12:24N 28°08' W 015°25'0 0.0
2017-Dec-10 11:54N 28°08' W 015°25'0 0.0
2017-Dec-10 11:27N 28°08' W 015°25'0 0.0
2017-Dec-10 10:57N 28°08' W 015°25'0 0.0
2017-Dec-10 10:27N 28°08' W 015°25'0 0.0
2017-Dec-10 09:57N 28°08' W 015°25'0 0.0
2017-Dec-10 09:27N 28°08' W 015°25'0 0.0
2017-Dec-10 08:57N 28°08' W 015°25'0 0.0
2017-Dec-10 08:27N 28°08' W 015°25'0 0.0
2017-Dec-10 07:57N 28°08' W 015°25'0 0.0
2017-Dec-10 07:27N 28°08' W 015°25'0 0.0
2017-Dec-10 06:57N 28°08' W 015°25'0 0.0
2017-Dec-10 06:30N 28°08' W 015°25'0 0.0
2017-Dec-10 06:00N 28°08' W 015°25'0 0.0
2017-Dec-10 05:30N 28°08' W 015°25'0 0.0
2017-Dec-10 05:00N 28°08' W 015°25'0 0.0
2017-Dec-10 04:30N 28°08' W 015°25'0 0.0
2017-Dec-10 03:59N 28°08' W 015°25'0 0.0
2017-Dec-10 03:26N 28°08' W 015°25'0 0.0
2017-Dec-10 02:59N 28°08' W 015°25'0 0.0
2017-Dec-10 02:29N 28°08' W 015°25'0 0.0
2017-Dec-10 01:59N 28°08' W 015°25'0 0.0
2017-Dec-10 01:29N 28°08' W 015°25'0 0.0
2017-Dec-10 00:59N 28°08' W 015°25'0 0.0
2017-Dec-10 00:29N 28°08' W 015°25'0 0.0
2017-Dec-09 23:59N 28°08' W 015°25'0 0.0
2017-Dec-09 23:29N 28°08' W 015°25'0 0.0
2017-Dec-09 22:59N 28°08' W 015°25'0 0.0
2017-Dec-09 22:29N 28°08' W 015°25'0 0.0
2017-Dec-09 21:59N 28°08' W 015°25'0 0.0
2017-Dec-09 21:29N 28°08' W 015°25'0 0.0
2017-Dec-09 20:59N 28°08' W 015°25'0 0.0
2017-Dec-09 20:29N 28°08' W 015°25'0 0.0
2017-Dec-09 19:59N 28°08' W 015°25'0 0.0
2017-Dec-09 19:29N 28°08' W 015°25'0 0.0
2017-Dec-09 19:00N 28°08' W 015°25'0 0.3
2017-Dec-09 18:30N 28°08' W 015°25'2 3.1
2017-Dec-09 18:00N 28°08' W 015°23'4 7.3
2017-Dec-09 17:30N 28°11' W 015°23'510.1
2017-Dec-09 17:00N 28°13' W 015°28'511.0
2017-Dec-09 16:30N 28°14' W 015°34'611.2
2017-Dec-09 16:00N 28°16' W 015°41'510.7
2017-Dec-09 15:30N 28°17' W 015°46'510.5
2017-Dec-09 15:00N 28°18' W 015°52'510.7
2017-Dec-09 14:30N 28°19' W 015°58'510.6
2017-Dec-09 14:00N 28°22' W 016°04'510.8
2017-Dec-09 13:30N 28°25' W 016°09'2 5.0
2017-Dec-09 13:00N 28°26' W 016°11'2 4.5
2017-Dec-09 12:30N 28°28' W 016°13'2 3.2
2017-Dec-09 12:00N 28°29' W 016°15'0 0.0
2017-Dec-09 11:30N 28°29' W 016°15'0 0.0
2017-Dec-09 11:00N 28°29' W 016°15'0 0.0
2017-Dec-09 10:30N 28°29' W 016°15'0 0.0
2017-Dec-09 10:00N 28°29' W 016°15'0 0.0
2017-Dec-09 09:30N 28°29' W 016°15'0 0.0
2017-Dec-09 09:00N 28°29' W 016°15'0 0.0
2017-Dec-09 08:30N 28°29' W 016°15'0 0.0
2017-Dec-09 08:00N 28°29' W 016°15'0 0.0
2017-Dec-09 07:30N 28°29' W 016°15'0 0.0
2017-Dec-09 07:00N 28°29' W 016°15'0 0.0
2017-Dec-09 06:30N 28°29' W 016°15'0 0.0
2017-Dec-09 06:00N 28°29' W 016°15'0 0.0
2017-Dec-09 05:30N 28°29' W 016°15'0 0.0
2017-Dec-09 05:00N 28°29' W 016°15'0 0.0
2017-Dec-09 04:30N 28°29' W 016°15'0 0.0
2017-Dec-09 04:00N 28°29' W 016°15'0 0.0
2017-Dec-09 03:30N 28°29' W 016°15'0 0.0
2017-Dec-09 03:00N 28°29' W 016°15'0 0.0
2017-Dec-09 02:30N 28°29' W 016°15'0 0.8
2017-Dec-09 02:00N 28°29' W 016°14'3 5.0
2017-Dec-09 01:30N 28°29' W 016°11'2 3.6
2017-Dec-09 01:00N 28°29' W 016°10'3 6.9
2017-Dec-09 00:30N 28°31' W 016°06'510.3
2017-Dec-09 00:00N 28°35' W 016°03'  

Dump ship's entire track history